LRTR/TSR METAR and TAF weather

Enter ICAO airport designator
Station Type Date Time Source
LRTR METAR 2020/02/27 13:00 UTC NOAA

LRTR 271300Z 33011KT 9999 SCT035 08/00 Q1006


Station Type Date Time Source
LRTR Decoded METAR 2020/02/27 13:00 UTC NOAA

Timisoara, Romania (LRTR) 45-46N 021-15E 88M
Feb 27, 2020 - 08:00 AM EST / 2020.02.27 1300 UTC
Wind: from the NNW (330 degrees) at 13 MPH (11 KT):0
Visibility: greater than 7 mile(s):0
Sky conditions: partly cloudy
Temperature: 46 F (8 C)
Dew Point: 32 F (0 C)
Relative Humidity: 56%
Pressure (altimeter): 29.71 in. Hg (1006 hPa)
ob: LRTR 271300Z 33011KT 9999 SCT035 08/00 Q1006
cycle: 13

Station Type Date Time Source
LRTR TAF 2020/02/27 12:33 UTC NOAA

TAF LRTR 271100Z 2712/2812 32010KT 9999 SCT030
BECMG 2721/2723 18012KT
BECMG 2804/2806 5000 -RA BR BKN015 BKN030
BECMG 2806/2808 3000 SHSN BKN010 SCT030CB BKN040
BECMG 2808/2810 27010KT
BECMG 2810/2812 28015G25KT 7000 NSW SCT030

Example: see airport list